Time;durP1;ratioP1;P1;durP2;ratioP2;P2;SDS_P1;SDS_P2;PMS_P1;PMS_P2;Temp;Humidity;BMP_temperature;BMP_pressure;BME280_temperature;BME280_humidity;BME280_pressure;Samples;Min_cycle;Max_cycle;Signal;HPM_P1;HPM_P2
2023/10/07 14:18:59;;;;;;;;;;;13.70;95.00;;;;;;5076357;27;20118;-76
2023/10/07 14:21:25;;;;;;;5.28;1.60;;;13.80;95.20;;;;;;5063851;28;19923;-77
2023/10/07 14:23:51;;;;;;;6.75;1.90;;;13.80;95.10;;;;;;5063950;28;20041;-77
2023/10/07 14:26:17;;;;;;;5.93;1.73;;;14.00;94.20;;;;;;5058760;28;20106;-77
2023/10/07 14:28:46;;;;;;;3.47;1.52;;;14.00;92.70;;;;;;5056913;28;20098;-76
2023/10/07 14:31:14;;;;;;;5.88;1.60;;;13.90;91.60;;;;;;5055940;28;20079;-76
2023/10/07 14:33:40;;;;;;;5.35;1.65;;;13.90;90.90;;;;;;5057124;28;20522;-76
2023/10/07 14:36:10;;;;;;;1.55;1.20;;;13.90;90.50;;;;;;5058590;28;20037;-76
2023/10/07 14:38:41;;;;;;;1.90;1.50;;;13.90;89.90;;;;;;5056893;28;20032;-76
2023/10/07 14:41:11;;;;;;;1.48;1.25;;;13.80;89.10;;;;;;5057479;28;20056;-76
2023/10/07 14:43:37;;;;;;;2.60;1.40;;;13.90;88.70;;;;;;5057836;28;20035;-76
2023/10/07 14:46:10;;;;;;;2.08;1.38;;;13.80;88.20;;;;;;5081621;28;20498;-75
2023/10/07 14:48:45;;;;;;;1.33;1.23;;;13.80;87.80;;;;;;5059567;28;20453;-76
2023/10/07 14:51:12;;;;;;;2.03;1.35;;;13.80;87.70;;;;;;5073205;28;20044;-76
2023/10/07 14:53:39;;;;;;;1.40;1.27;;;13.80;87.40;;;;;;5057369;28;20068;-75
2023/10/07 14:56:15;;;;;;;2.70;1.58;;;13.70;87.20;;;;;;5056997;28;20086;-77
2023/10/07 14:58:42;;;;;;;1.75;1.33;;;13.70;87.00;;;;;;5055137;28;20128;-76
2023/10/07 15:01:13;;;;;;;3.65;1.60;;;13.60;87.00;;;;;;5055143;28;20032;-76
2023/10/07 15:03:40;;;;;;;1.52;1.42;;;13.60;87.00;;;;;;5055949;28;20142;-73
2023/10/07 15:06:11;;;;;;;2.83;1.80;;;13.60;86.90;;;;;;5058566;28;20608;-72
2023/10/07 15:08:39;;;;;;;1.50;1.40;;;13.60;86.90;;;;;;5058873;28;20039;-74
2023/10/07 15:11:05;;;;;;;1.92;1.42;;;13.60;87.10;;;;;;5058577;28;20029;-73
2023/10/07 15:13:35;;;;;;;1.88;1.30;;;13.50;87.10;;;;;;5041928;28;20037;-73
2023/10/07 15:16:11;;;;;;;2.25;1.50;;;13.50;87.30;;;;;;5054980;28;20029;-73
2023/10/07 15:18:49;;;;;;;1.48;1.35;;;13.50;87.30;;;;;;5056444;28;20098;-73
2023/10/07 15:21:17;;;;;;;2.35;1.50;;;13.50;87.50;;;;;;5080668;28;20060;-73
2023/10/07 15:23:43;;;;;;;1.67;1.20;;;13.50;87.60;;;;;;5042503;28;20033;-72
2023/10/07 15:26:11;;;;;;;1.33;1.20;;;13.40;87.60;;;;;;5058773;28;20036;-72
2023/10/07 15:28:38;;;;;;;2.58;1.45;;;13.40;87.70;;;;;;5036093;28;20029;-74
2023/10/07 15:31:06;;;;;;;2.67;1.60;;;13.40;87.90;;;;;;5068157;28;20372;-72
2023/10/07 15:33:33;;;;;;;1.40;1.30;;;13.40;88.00;;;;;;5041837;28;20033;-73
2023/10/07 15:36:00;;;;;;;1.70;1.60;;;13.40;88.20;;;;;;5040632;28;20449;-76
2023/10/07 15:38:26;;;;;;;1.23;1.10;;;13.30;88.10;;;;;;5068103;28;20598;-74
2023/10/07 15:40:56;;;;;;;1.08;1.02;;;13.40;88.20;;;;;;5029302;28;20028;-74
2023/10/07 15:43:22;;;;;;;1.42;1.20;;;13.30;88.30;;;;;;5043424;28;20037;-74
2023/10/07 15:45:49;;;;;;;1.50;1.13;;;13.30;88.30;;;;;;5039820;28;20043;-74
2023/10/07 15:48:25;;;;;;;1.30;1.20;;;13.30;88.50;;;;;;5050699;28;20049;-75
2023/10/07 15:50:52;;;;;;;1.40;1.30;;;13.30;88.60;;;;;;5042013;28;20033;-74
2023/10/07 15:53:18;;;;;;;1.85;1.48;;;13.30;88.60;;;;;;5041072;28;20033;-74
2023/10/07 15:55:44;;;;;;;1.30;1.20;;;13.30;88.80;;;;;;5041929;28;20396;-74
2023/10/07 15:58:11;;;;;;;2.25;1.58;;;13.30;88.90;;;;;;5041567;28;20094;-74
2023/10/07 16:00:38;;;;;;;1.70;1.27;;;13.20;88.90;;;;;;5043731;28;20372;-75
2023/10/07 16:03:08;;;;;;;2.38;1.38;;;13.30;90.00;;;;;;5056433;28;20040;-74
2023/10/07 16:05:35;;;;;;;1.67;1.23;;;13.30;89.90;;;;;;5043092;28;20029;-74
2023/10/07 16:08:07;;;;;;;2.17;1.17;;;13.30;89.80;;;;;;5039772;28;20039;-76
2023/10/07 16:10:39;;;;;;;1.27;1.17;;;13.30;89.70;;;;;;5045167;28;20087;-76
2023/10/07 16:13:08;;;;;;;1.33;1.30;;;13.30;90.50;;;;;;5044427;28;20102;-76
2023/10/07 16:15:36;;;;;;;1.50;1.30;;;13.30;90.40;;;;;;5040117;28;20523;-75
2023/10/07 16:18:02;;;;;;;2.13;1.10;;;13.30;90.30;;;;;;5041021;28;20159;-75
2023/10/07 16:20:28;;;;;;;1.88;1.20;;;13.30;90.20;;;;;;5043007;28;20072;-76
2023/10/07 16:23:01;;;;;;;2.22;1.40;;;13.30;90.20;;;;;;5051154;28;20088;-77
2023/10/07 16:25:28;;;;;;;1.20;1.10;;;13.30;90.20;;;;;;5041268;28;20037;-75
2023/10/07 16:27:54;;;;;;;1.73;1.13;;;13.30;90.10;;;;;;5043109;28;20033;-75
2023/10/07 16:30:20;;;;;;;1.77;1.10;;;13.20;90.10;;;;;;5025559;28;20079;-74
2023/10/07 16:32:47;;;;;;;1.48;1.10;;;13.20;90.20;;;;;;5041201;28;20063;-75
2023/10/07 16:35:13;;;;;;;1.15;1.05;;;13.20;90.20;;;;;;5040742;28;20053;-76
2023/10/07 16:37:40;;;;;;;2.13;1.80;;;13.30;90.20;;;;;;5040529;28;20087;-77
2023/10/07 16:40:07;;;;;;;2.17;1.75;;;13.20;90.20;;;;;;5038137;28;20039;-76
2023/10/07 16:42:36;;;;;;;2.20;1.83;;;13.30;90.30;;;;;;5041454;28;20029;-76
2023/10/07 16:45:05;;;;;;;1.60;1.38;;;13.20;90.20;;;;;;5039367;28;20033;-76
2023/10/07 16:47:35;;;;;;;1.73;1.48;;;13.30;90.30;;;;;;5041280;28;20033;-75
2023/10/07 16:50:01;;;;;;;2.03;1.42;;;13.30;90.30;;;;;;5040407;28;20395;-75
2023/10/07 16:52:29;;;;;;;1.40;1.30;;;13.30;90.30;;;;;;5040744;28;20510;-75
2023/10/07 16:54:56;;;;;;;1.20;1.10;;;13.30;90.30;;;;;;5027705;28;20037;-76
2023/10/07 16:57:23;;;;;;;1.17;0.90;;;13.30;90.20;;;;;;5039947;28;20045;-77
2023/10/07 16:59:50;;;;;;;1.42;0.90;;;13.30;90.10;;;;;;5040036;28;20033;-77
2023/10/07 17:02:16;;;;;;;1.40;0.80;;;13.30;89.80;;;;;;5041594;28;20025;-77
2023/10/07 17:04:42;;;;;;;1.27;0.70;;;13.30;89.50;;;;;;5041501;28;20068;-75
2023/10/07 17:07:08;;;;;;;1.17;0.98;;;13.30;89.20;;;;;;5042839;28;20064;-75
2023/10/07 17:09:34;;;;;;;0.93;0.80;;;13.30;89.10;;;;;;5039402;28;20128;-75
2023/10/07 17:12:00;;;;;;;1.63;1.02;;;13.30;89.00;;;;;;5039334;28;20033;-75
2023/10/07 17:14:27;;;;;;;1.23;1.08;;;13.30;88.80;;;;;;5039053;28;20052;-75
2023/10/07 17:16:53;;;;;;;1.30;0.98;;;13.30;88.50;;;;;;5039779;28;20096;-75
2023/10/07 17:19:19;;;;;;;1.63;1.10;;;13.30;88.40;;;;;;5043747;28;20665;-75
2023/10/07 17:21:47;;;;;;;1.27;0.90;;;13.30;88.30;;;;;;5040483;28;20048;-75
2023/10/07 17:24:13;;;;;;;3.60;2.33;;;13.30;88.30;;;;;;5039954;28;20029;-76
2023/10/07 17:26:39;;;;;;;3.97;2.75;;;13.20;88.20;;;;;;5041132;28;20122;-76
2023/10/07 17:29:05;;;;;;;3.97;2.50;;;13.20;88.20;;;;;;5039441;28;20029;-77
2023/10/07 17:31:32;;;;;;;3.97;2.22;;;13.20;88.20;;;;;;5041097;28;20526;-76
2023/10/07 17:33:58;;;;;;;2.42;1.65;;;13.20;88.10;;;;;;5041182;28;20065;-75
2023/10/07 17:36:24;;;;;;;2.67;1.80;;;13.20;88.10;;;;;;5040273;28;20128;-76
2023/10/07 17:38:50;;;;;;;3.53;1.90;;;13.20;88.90;;;;;;5043468;28;20045;-79
2023/10/07 17:41:21;;;;;;;3.65;1.90;;;13.20;88.70;;;;;;5042230;28;20032;-75
2023/10/07 17:43:47;;;;;;;3.20;1.45;;;13.20;88.50;;;;;;5018785;28;20354;-75
2023/10/07 17:46:13;;;;;;;2.25;1.70;;;13.20;88.30;;;;;;5019777;28;20048;-76
2023/10/07 17:48:41;;;;;;;2.30;1.40;;;13.20;88.20;;;;;;5024426;28;21317;-76
2023/10/07 17:51:08;;;;;;;1.67;1.20;;;13.20;88.20;;;;;;5028681;28;20133;-76
2023/10/07 17:53:34;;;;;;;1.63;1.30;;;13.20;88.00;;;;;;5044834;28;20025;-75
2023/10/07 17:56:05;;;;;;;1.52;1.30;;;13.20;88.00;;;;;;5019527;28;20038;-74
2023/10/07 17:58:32;;;;;;;2.58;1.42;;;13.20;87.90;;;;;;5018298;28;20043;-74
2023/10/07 18:00:59;;;;;;;2.40;1.63;;;13.20;87.90;;;;;;5045188;28;20037;-77
2023/10/07 18:03:25;;;;;;;1.63;1.20;;;13.20;87.90;;;;;;5019713;28;20382;-76
2023/10/07 18:05:54;;;;;;;1.20;1.10;;;13.20;88.20;;;;;;5018881;28;20034;-76
2023/10/07 18:08:21;;;;;;;1.85;1.27;;;13.20;87.90;;;;;;5019239;28;20052;-76
2023/10/07 18:10:47;;;;;;;1.98;1.40;;;13.20;87.80;;;;;;5045572;28;20034;-76
2023/10/07 18:13:13;;;;;;;3.03;1.40;;;13.20;87.70;;;;;;5021555;28;20044;-77
2023/10/07 18:15:42;;;;;;;1.20;1.10;;;13.20;87.80;;;;;;5023270;28;20053;-77
2023/10/07 18:18:08;;;;;;;2.20;1.17;;;13.20;87.80;;;;;;5018794;28;20094;-75
2023/10/07 18:20:34;;;;;;;1.35;1.25;;;13.20;87.70;;;;;;5018581;28;20110;-74
2023/10/07 18:23:01;;;;;;;1.75;1.48;;;13.20;87.70;;;;;;5019347;28;20026;-74
2023/10/07 18:25:26;;;;;;;1.20;1.08;;;13.20;87.60;;;;;;5044079;28;20033;-75
2023/10/07 18:27:53;;;;;;;1.58;1.30;;;13.20;87.60;;;;;;5019976;28;20395;-75
2023/10/07 18:30:19;;;;;;;2.65;1.30;;;13.20;87.60;;;;;;5019529;28;20042;-75
2023/10/07 18:32:47;;;;;;;0.88;0.80;;;13.20;87.60;;;;;;5020885;28;20091;-76
2023/10/07 18:35:13;;;;;;;2.10;1.23;;;13.20;88.20;;;;;;5022962;28;20033;-76
2023/10/07 18:37:40;;;;;;;1.85;1.17;;;13.20;87.60;;;;;;5020332;28;20081;-76
2023/10/07 18:40:09;;;;;;;1.60;1.13;;;13.20;87.50;;;;;;5021599;28;20395;-76
2023/10/07 18:42:36;;;;;;;1.13;1.02;;;13.20;87.60;;;;;;5015496;28;20117;-77
2023/10/07 18:45:04;;;;;;;2.00;1.10;;;13.10;87.40;;;;;;5020907;28;20511;-77
2023/10/07 18:47:31;;;;;;;1.15;1.00;;;13.20;87.40;;;;;;5039671;28;20546;-76
2023/10/07 18:49:57;;;;;;;0.85;0.82;;;13.10;87.20;;;;;;5039138;28;20082;-76
2023/10/07 18:52:23;;;;;;;1.05;0.70;;;13.10;86.90;;;;;;5064231;28;20045;-75
2023/10/07 18:54:49;;;;;;;3.53;0.80;;;13.20;86.80;;;;;;5037974;28;20041;-76
2023/10/07 18:57:16;;;;;;;1.17;0.70;;;13.20;86.50;;;;;;5038375;28;20065;-75
2023/10/07 18:59:42;;;;;;;1.90;0.63;;;13.10;86.20;;;;;;5037859;28;20488;-76
2023/10/07 19:02:09;;;;;;;1.67;0.90;;;13.20;86.20;;;;;;5038342;28;20120;-76
2023/10/07 19:04:35;;;;;;;2.53;0.88;;;13.20;85.90;;;;;;5041770;28;20075;-75
2023/10/07 19:07:02;;;;;;;1.55;0.82;;;13.20;85.70;;;;;;5042609;28;20103;-75
2023/10/07 19:09:28;;;;;;;1.08;0.55;;;13.20;85.50;;;;;;5041924;28;20047;-75
2023/10/07 19:11:54;;;;;;;1.25;0.80;;;13.10;85.30;;;;;;5042906;28;20658;-74
2023/10/07 19:14:21;;;;;;;1.45;0.80;;;13.10;85.20;;;;;;5044941;28;20040;-75
2023/10/07 19:16:49;;;;;;;1.30;0.70;;;13.10;85.10;;;;;;5031069;28;20032;-75
2023/10/07 19:19:17;;;;;;;2.05;0.60;;;13.10;85.10;;;;;;5066980;28;20079;-75
2023/10/07 19:21:44;;;;;;;2.20;1.00;;;13.10;85.00;;;;;;5021356;28;20037;-77
2023/10/07 19:24:10;;;;;;;0.90;0.73;;;13.10;85.00;;;;;;5040522;28;20080;-74
2023/10/07 19:26:36;;;;;;;0.77;0.65;;;13.10;85.00;;;;;;5042350;28;20124;-74
2023/10/07 19:29:02;;;;;;;1.02;0.43;;;13.10;84.80;;;;;;5051555;28;20492;-75
2023/10/07 19:31:28;;;;;;;1.05;0.43;;;13.10;84.50;;;;;;5043870;28;20416;-75
2023/10/07 19:33:56;;;;;;;1.33;0.40;;;13.10;84.40;;;;;;5044458;28;20040;-75
2023/10/07 19:36:23;;;;;;;1.13;0.40;;;13.10;84.20;;;;;;5044708;28;20074;-75
2023/10/07 19:38:49;;;;;;;0.82;0.55;;;13.10;83.90;;;;;;5039313;28;20069;-75
2023/10/07 19:41:17;;;;;;;0.40;0.22;;;13.10;83.60;;;;;;5042985;28;20029;-75
2023/10/07 19:43:43;;;;;;;0.60;0.30;;;13.10;83.50;;;;;;5042176;28;20061;-74
2023/10/07 19:46:08;;;;;;;1.92;0.50;;;13.10;83.80;;;;;;5044381;28;20132;-75
2023/10/07 19:48:34;;;;;;;0.80;0.32;;;13.10;83.10;;;;;;5041236;28;20044;-74
2023/10/07 19:51:00;;;;;;;0.28;0.20;;;13.10;82.80;;;;;;5041947;28;20060;-74
2023/10/07 19:53:28;;;;;;;0.38;0.38;;;13.10;82.60;;;;;;5058069;28;20033;-74
2023/10/07 19:55:54;;;;;;;1.30;0.28;;;13.10;82.90;;;;;;5041133;28;20059;-75
2023/10/07 19:58:21;;;;;;;2.05;0.43;;;13.10;82.30;;;;;;5042066;28;20052;-74
2023/10/07 20:00:47;;;;;;;1.00;0.20;;;13.10;82.10;;;;;;5042238;28;20136;-76
2023/10/07 20:03:13;;;;;;;0.68;0.20;;;13.10;81.90;;;;;;5042359;28;20116;-75
2023/10/07 20:05:39;;;;;;;1.48;0.20;;;13.10;81.90;;;;;;5042167;28;21382;-75
2023/10/07 20:08:11;;;;;;;0.50;0.20;;;13.10;81.80;;;;;;5043800;28;20163;-75
2023/10/07 20:10:38;;;;;;;0.35;0.30;;;13.10;82.00;;;;;;5045163;28;20056;-75
2023/10/07 20:13:04;;;;;;;0.20;0.20;;;13.00;82.30;;;;;;5041637;28;20033;-75
2023/10/07 20:15:32;;;;;;;0.43;0.30;;;13.00;82.50;;;;;;5041486;28;20071;-75
2023/10/07 20:17:58;;;;;;;2.50;0.40;;;13.00;82.70;;;;;;5039601;28;20041;-75
2023/10/07 20:20:25;;;;;;;2.72;0.40;;;13.00;82.80;;;;;;5041109;28;20450;-75
2023/10/07 20:22:51;;;;;;;1.50;0.30;;;13.00;82.90;;;;;;5041759;28;20038;-75
2023/10/07 20:25:18;;;;;;;1.08;0.40;;;13.00;82.60;;;;;;5042471;28;20029;-74
2023/10/07 20:27:44;;;;;;;1.00;0.20;;;13.00;82.60;;;;;;5027878;28;20065;-74
2023/10/07 20:30:10;;;;;;;0.35;0.20;;;13.00;83.00;;;;;;5041106;28;20057;-74
2023/10/07 20:32:36;;;;;;;1.52;0.40;;;13.00;82.50;;;;;;5042380;28;20489;-75
2023/10/07 20:35:04;;;;;;;0.40;0.20;;;12.90;81.90;;;;;;5041810;28;20439;-74
2023/10/07 20:37:31;;;;;;;0.93;0.20;;;13.00;81.70;;;;;;5040890;28;20091;-74
2023/10/07 20:39:57;;;;;;;0.40;0.30;;;13.00;81.60;;;;;;5039788;28;20157;-75
2023/10/07 20:42:23;;;;;;;1.02;0.10;;;12.90;81.30;;;;;;5041227;28;20033;-74
2023/10/07 20:44:49;;;;;;;0.65;0.20;;;12.90;81.10;;;;;;5040688;28;20121;-73
2023/10/07 20:47:15;;;;;;;0.73;0.17;;;12.90;80.90;;;;;;5043393;28;20777;-74
2023/10/07 20:49:41;;;;;;;0.20;0.20;;;13.00;80.30;;;;;;5028156;28;20037;-74
2023/10/07 20:52:08;;;;;;;0.75;0.20;;;12.90;80.10;;;;;;5038916;28;20508;-74
2023/10/07 20:54:34;;;;;;;0.88;0.20;;;12.90;79.30;;;;;;5042017;28;20033;-74
2023/10/07 20:57:00;;;;;;;0.10;0.10;;;12.90;78.80;;;;;;5058062;28;20040;-73
2023/10/07 20:59:27;;;;;;;0.20;0.10;;;12.90;78.40;;;;;;5041320;28;20024;-75
2023/10/07 21:01:53;;;;;;;0.52;0.20;;;12.80;78.10;;;;;;5039798;28;20112;-75
2023/10/07 21:04:19;;;;;;;1.02;0.10;;;12.80;78.40;;;;;;5041907;28;20150;-74
2023/10/07 21:06:45;;;;;;;0.17;0.17;;;12.80;78.10;;;;;;5041531;28;20500;-73
2023/10/07 21:09:12;;;;;;;0.50;0.20;;;12.80;77.90;;;;;;5039265;28;20037;-73
2023/10/07 21:11:39;;;;;;;0.10;0.10;;;12.70;77.80;;;;;;5040549;28;20036;-73
2023/10/07 21:14:05;;;;;;;1.85;0.30;;;12.70;77.80;;;;;;5042301;28;20025;-74
2023/10/07 21:16:31;;;;;;;0.65;0.10;;;12.80;77.90;;;;;;5040267;28;20531;-74
2023/10/07 21:18:58;;;;;;;0.43;0.17;;;12.80;78.60;;;;;;5041679;28;20060;-74
2023/10/07 21:21:25;;;;;;;1.27;0.30;;;12.80;78.20;;;;;;5026951;28;20039;-74
2023/10/07 21:23:52;;;;;;;0.20;0.20;;;12.70;77.60;;;;;;5027911;28;20510;-74
2023/10/07 21:26:23;;;;;;;0.32;0.20;;;12.70;77.50;;;;;;5039317;28;20056;-74
2023/10/07 21:28:50;;;;;;;0.13;0.03;;;12.60;77.30;;;;;;5040367;28;20045;-74
2023/10/07 21:31:17;;;;;;;0.30;0.17;;;12.60;77.30;;;;;;5042247;28;20029;-75
2023/10/07 21:33:44;;;;;;;2.28;0.20;;;12.60;77.10;;;;;;5040045;28;20103;-75
2023/10/07 21:36:10;;;;;;;0.17;0.10;;;12.60;76.90;;;;;;5040876;28;20033;-74
2023/10/07 21:38:38;;;;;;;0.55;0.10;;;12.60;76.70;;;;;;5039373;28;20037;-74
2023/10/07 21:41:05;;;;;;;0.10;0.10;;;12.60;77.20;;;;;;5026800;28;20496;-74
2023/10/07 21:43:32;;;;;;;0.17;0.10;;;12.60;77.30;;;;;;5038871;28;20385;-75
2023/10/07 21:45:58;;;;;;;0.10;0.10;;;12.60;76.70;;;;;;5039990;28;20040;-75
2023/10/07 21:48:26;;;;;;;1.15;0.10;;;12.70;77.30;;;;;;5039710;28;20064;-74
2023/10/07 21:50:52;;;;;;;0.45;0.10;;;12.60;76.70;;;;;;5027416;28;20111;-74
2023/10/07 21:53:20;;;;;;;0.10;0.10;;;12.60;76.50;;;;;;5038367;28;20116;-73
2023/10/07 21:55:46;;;;;;;0.05;0.05;;;12.60;76.30;;;;;;5040813;28;20130;-74
2023/10/07 21:58:14;;;;;;;0.40;0.10;;;12.60;76.30;;;;;;5041383;28;20493;-74
2023/10/07 22:00:41;;;;;;;0.30;0.20;;;12.60;76.30;;;;;;5011602;28;21380;-74
2023/10/07 22:03:14;;;;;;;0.10;0.00;;;12.50;76.20;;;;;;5027177;28;20029;-74
2023/10/07 22:05:44;;;;;;;1.75;0.10;;;12.50;76.20;;;;;;5039581;28;20633;-74
2023/10/07 22:08:11;;;;;;;3.00;0.20;;;12.50;76.10;;;;;;5036463;28;20033;-74
2023/10/07 22:10:37;;;;;;;1.08;0.10;;;12.50;75.90;;;;;;5010241;28;20045;-74
2023/10/07 22:13:11;;;;;;;0.88;0.20;;;12.40;76.30;;;;;;5040347;28;20568;-75
2023/10/07 22:15:48;;;;;;;0.77;0.10;;;12.40;76.20;;;;;;5037742;28;20037;-75
2023/10/07 22:18:18;;;;;;;0.10;0.10;;;12.50;76.10;;;;;;5037333;28;20045;-75
2023/10/07 22:20:44;;;;;;;0.55;0.10;;;12.40;75.50;;;;;;5037820;28;20056;-75
2023/10/07 22:23:11;;;;;;;0.00;0.00;;;12.40;75.30;;;;;;5040462;28;20029;-74
2023/10/07 22:25:40;;;;;;;1.02;0.00;;;12.40;75.10;;;;;;5037633;28;20033;-75
2023/10/07 22:28:10;;;;;;;0.10;0.00;;;12.40;75.10;;;;;;5022845;28;20033;-75
2023/10/07 22:30:38;;;;;;;2.10;0.10;;;12.30;75.00;;;;;;5041057;28;20112;-74
2023/10/07 22:33:05;;;;;;;0.47;0.10;;;12.30;74.80;;;;;;5038660;28;20033;-75
2023/10/07 22:35:34;;;;;;;0.38;0.10;;;12.30;74.80;;;;;;5005241;28;20128;-75
2023/10/07 22:38:08;;;;;;;0.25;0.10;;;12.30;74.70;;;;;;5038533;28;20672;-75
2023/10/07 22:40:42;;;;;;;0.00;0.00;;;12.30;74.50;;;;;;5042635;28;20406;-74
2023/10/07 22:43:20;;;;;;;0.80;0.00;;;12.30;74.40;;;;;;5042797;28;20080;-74
2023/10/07 22:45:48;;;;;;;0.00;0.00;;;12.30;74.20;;;;;;5042700;28;20033;-75
2023/10/07 22:48:20;;;;;;;1.10;0.00;;;12.20;73.90;;;;;;5042537;28;20033;-75
2023/10/07 22:51:08;;;;;;;0.50;0.00;;;12.20;74.00;;;;;;5045367;28;20432;-74
2023/10/07 22:53:41;;;;;;;0.10;0.10;;;12.20;74.10;;;;;;5043442;28;20122;-73
2023/10/07 22:56:19;;;;;;;0.10;0.00;;;12.20;74.10;;;;;;5030569;28;20028;-74
2023/10/07 22:58:46;;;;;;;0.20;0.10;;;12.20;74.20;;;;;;5045030;28;20044;-74
2023/10/07 23:01:40;;;;;;;1.15;0.10;;;12.20;74.20;;;;;;5044173;28;20029;-74
2023/10/07 23:04:20;;;;;;;0.08;0.05;;;12.20;74.20;;;;;;5040392;28;20041;-74
2023/10/07 23:07:00;;;;;;;0.30;0.00;;;12.10;74.30;;;;;;5043424;28;20035;-74
2023/10/07 23:09:36;;;;;;;1.13;0.10;;;12.10;74.30;;;;;;5042162;28;20033;-73
2023/10/07 23:12:04;;;;;;;0.93;0.05;;;12.10;74.10;;;;;;5040207;28;20040;-74
2023/10/07 23:14:36;;;;;;;1.05;0.00;;;12.10;74.30;;;;;;5042826;28;20065;-74
2023/10/07 23:17:04;;;;;;;0.40;0.17;;;12.10;74.30;;;;;;5069109;28;20037;-75
2023/10/07 23:19:42;;;;;;;1.73;0.10;;;12.10;74.30;;;;;;5043162;28;20539;-74
2023/10/07 23:27:06;;;;;;;0.08;0.00;;;12.00;74.30;;;;;;5041472;28;20091;-74
2023/10/07 23:29:43;;;;;;;0.00;0.00;;;12.10;74.40;;;;;;5046364;28;20029;-75
2023/10/07 23:34:53;;;;;;;0.10;0.10;;;12.00;74.20;;;;;;5041030;28;20448;-73
2023/10/07 23:37:26;;;;;;;1.08;0.00;;;12.00;74.30;;;;;;5042533;28;20128;-75
2023/10/07 23:40:09;;;;;;;0.00;0.00;;;12.00;74.30;;;;;;5043238;28;20055;-75
2023/10/07 23:42:35;;;;;;;0.43;0.00;;;12.00;74.70;;;;;;5045643;28;20056;-74
2023/10/07 23:45:06;;;;;;;0.10;0.10;;;12.00;74.70;;;;;;5042139;28;20037;-74
2023/10/07 23:47:33;;;;;;;0.13;0.00;;;12.00;74.80;;;;;;5042066;28;20039;-74
2023/10/07 23:49:59;;;;;;;0.63;0.10;;;12.10;74.90;;;;;;5041498;28;20025;-74
2023/10/07 23:52:26;;;;;;;0.60;0.10;;;12.10;74.90;;;;;;5043720;28;20037;-73
2023/10/07 23:54:59;;;;;;;1.02;0.00;;;12.00;74.90;;;;;;5042172;28;20471;-73
2023/10/07 23:57:32;;;;;;;0.52;0.00;;;12.00;75.00;;;;;;5041612;28;20168;-74
